createdAt,value
2023-04-18T00:01:49.909Z,8.07
2023-04-18T00:04:17.480Z,6.83
2023-04-18T00:06:44.065Z,7.53
2023-04-18T00:09:10.215Z,7.10
2023-04-18T00:11:36.611Z,6.80
2023-04-18T00:14:02.682Z,7.90
2023-04-18T00:16:29.065Z,7.67
2023-04-18T00:18:56.388Z,7.40
2023-04-18T00:21:25.872Z,7.30
2023-04-18T00:23:51.984Z,7.50
2023-04-18T00:26:18.392Z,7.73
2023-04-18T00:28:47.185Z,7.03
2023-04-18T00:31:13.670Z,7.17
2023-04-18T00:33:39.753Z,7.03
2023-04-18T00:36:06.240Z,8.10
2023-04-18T00:38:33.400Z,7.90
2023-04-18T00:40:59.814Z,7.30
2023-04-18T00:43:26.150Z,7.23
2023-04-18T00:45:52.683Z,7.17
2023-04-18T00:48:19.888Z,7.17
2023-04-18T00:50:46.358Z,7.00
2023-04-18T00:53:12.763Z,8.27
2023-04-18T00:55:39.936Z,7.90
2023-04-18T00:58:06.420Z,7.37
2023-04-18T01:00:32.996Z,7.57
2023-04-18T01:03:00.239Z,7.43
2023-04-18T01:05:26.873Z,7.73
2023-04-18T01:07:57.957Z,8.00
2023-04-18T01:10:25.632Z,7.80
2023-04-18T01:13:12.473Z,8.50
2023-04-18T01:15:40.644Z,8.83
2023-04-18T01:18:08.215Z,8.10
2023-04-18T01:20:37.736Z,8.13
2023-04-18T01:23:03.767Z,7.77
2023-04-18T01:25:30.107Z,8.50
2023-04-18T01:27:58.055Z,8.67
2023-04-18T01:30:26.976Z,8.00
2023-04-18T01:32:53.198Z,8.53
2023-04-18T01:35:19.696Z,8.67
2023-04-18T01:37:45.740Z,7.97
2023-04-18T01:40:12.199Z,9.20
2023-04-18T01:42:38.296Z,10.67
2023-04-18T01:45:05.393Z,17.00
2023-04-18T01:47:32.842Z,16.73
2023-04-18T01:49:59.180Z,230.13
2023-04-18T01:52:28.130Z,132.93
2023-04-18T01:54:54.456Z,180.23
2023-04-18T01:57:20.532Z,121.13
2023-04-18T01:59:48.613Z,59.43
2023-04-18T02:02:15.785Z,22.83
2023-04-18T02:04:42.290Z,17.33
2023-04-18T02:07:09.437Z,13.80
2023-04-18T02:09:35.823Z,13.40
2023-04-18T02:12:03.049Z,12.50
2023-04-18T02:14:31.609Z,11.37
2023-04-18T02:17:00.211Z,12.73
2023-04-18T02:19:27.902Z,14.33
2023-04-18T02:21:54.143Z,16.93
2023-04-18T02:24:20.474Z,14.87
2023-04-18T02:26:46.626Z,12.27
2023-04-18T02:29:13.071Z,11.97
2023-04-18T02:31:40.329Z,12.27
2023-04-18T02:34:07.245Z,10.70
2023-04-18T02:36:33.556Z,12.07
2023-04-18T02:38:59.885Z,11.47
2023-04-18T02:41:26.000Z,10.43
2023-04-18T02:43:54.163Z,10.47
2023-04-18T02:46:20.655Z,11.03
2023-04-18T02:48:48.409Z,10.50
2023-04-18T02:51:15.801Z,10.93
2023-04-18T02:53:42.626Z,11.80
2023-04-18T02:56:08.961Z,12.70
2023-04-18T02:58:55.283Z,10.63
2023-04-18T03:01:39.888Z,12.03
2023-04-18T03:04:10.449Z,10.70
2023-04-18T03:06:47.706Z,11.20
2023-04-18T03:09:15.557Z,11.10
2023-04-18T03:11:46.343Z,11.07
2023-04-18T03:14:13.952Z,10.73
2023-04-18T03:16:47.513Z,12.63
2023-04-18T03:19:18.189Z,11.30
2023-04-18T03:21:44.466Z,10.73
2023-04-18T03:24:12.200Z,10.23
2023-04-18T03:26:40.072Z,10.43
2023-04-18T03:29:06.568Z,10.80
2023-04-18T03:31:33.080Z,11.00
2023-04-18T03:34:00.423Z,10.57
2023-04-18T03:36:28.034Z,11.60
2023-04-18T03:38:55.122Z,11.03
2023-04-18T03:41:21.328Z,10.20
2023-04-18T03:43:47.994Z,10.13
2023-04-18T03:46:14.864Z,10.83
2023-04-18T03:48:41.787Z,10.60
2023-04-18T03:51:10.980Z,10.43
2023-04-18T03:53:38.709Z,11.20
2023-04-18T03:56:05.068Z,10.97
2023-04-18T03:58:46.998Z,11.17
2023-04-18T04:01:13.278Z,11.07
2023-04-18T04:03:39.999Z,10.40
2023-04-18T04:06:06.821Z,11.43
2023-04-18T04:08:33.429Z,11.40
2023-04-18T04:10:59.750Z,11.77
2023-04-18T04:13:26.486Z,10.90
2023-04-18T04:15:53.867Z,11.33
2023-04-18T04:18:20.304Z,11.77
2023-04-18T04:20:47.069Z,10.67
2023-04-18T04:23:24.691Z,11.80
2023-04-18T04:25:55.453Z,11.67
2023-04-18T04:28:35.564Z,11.87
2023-04-18T04:31:07.615Z,11.17
2023-04-18T04:33:37.932Z,11.43
2023-04-18T04:36:08.919Z,12.03
2023-04-18T04:38:37.650Z,11.33
2023-04-18T04:41:07.423Z,11.67
2023-04-18T04:43:34.158Z,11.40
2023-04-18T04:46:02.372Z,11.37
2023-04-18T04:48:28.833Z,10.50
2023-04-18T04:50:57.032Z,11.83
2023-04-18T04:53:25.642Z,11.63
2023-04-18T04:55:52.412Z,11.83
2023-04-18T04:58:19.267Z,10.93
2023-04-18T05:01:16.202Z,12.23
2023-04-18T05:03:42.938Z,11.07
2023-04-18T05:06:09.652Z,10.93
2023-04-18T05:08:36.154Z,11.63
2023-04-18T05:11:03.095Z,10.03
2023-04-18T05:13:29.623Z,10.07
2023-04-18T05:15:56.111Z,11.27
2023-04-18T05:18:22.507Z,11.00
2023-04-18T05:20:48.586Z,10.17
2023-04-18T05:23:15.495Z,11.23
2023-04-18T05:25:41.828Z,11.70
2023-04-18T05:28:08.295Z,9.73
2023-04-18T05:30:34.623Z,9.10
2023-04-18T05:33:01.087Z,9.90
2023-04-18T05:35:27.626Z,10.47
2023-04-18T05:37:54.189Z,10.70
2023-04-18T05:40:20.480Z,12.13
2023-04-18T05:42:47.179Z,9.77
2023-04-18T05:45:13.374Z,9.20
2023-04-18T05:47:39.879Z,10.90
2023-04-18T05:50:06.721Z,10.90
2023-04-18T05:52:33.340Z,10.33
2023-04-18T05:54:59.470Z,9.57
2023-04-18T05:57:25.855Z,9.73
2023-04-18T05:59:51.896Z,11.20
2023-04-18T06:02:18.376Z,9.83
2023-04-18T06:04:47.488Z,10.87
2023-04-18T06:07:14.639Z,11.53
2023-04-18T06:09:40.759Z,11.37
2023-04-18T06:12:07.156Z,11.50
2023-04-18T06:14:33.348Z,10.60
2023-04-18T06:16:59.784Z,10.67
2023-04-18T06:19:25.924Z,11.13
2023-04-18T06:21:52.723Z,10.43
2023-04-18T06:24:18.798Z,10.73
2023-04-18T06:26:45.730Z,10.73
2023-04-18T06:29:11.856Z,11.13
2023-04-18T06:31:38.483Z,11.37
2023-04-18T06:34:05.611Z,9.70
2023-04-18T06:36:32.357Z,9.87
2023-04-18T06:38:58.481Z,11.23
2023-04-18T06:41:24.800Z,11.67
2023-04-18T06:44:02.870Z,10.97
2023-04-18T06:46:32.056Z,10.67
2023-04-18T06:48:58.914Z,10.20
2023-04-18T06:51:26.705Z,10.93
2023-04-18T06:53:53.124Z,10.23
2023-04-18T06:56:20.086Z,10.60
2023-04-18T06:58:47.051Z,9.90
2023-04-18T07:01:13.946Z,9.67
2023-04-18T07:03:40.613Z,9.97
2023-04-18T07:06:10.070Z,10.50
2023-04-18T07:08:36.584Z,11.40
2023-04-18T07:11:03.286Z,10.37
2023-04-18T07:13:29.731Z,8.83
2023-04-18T07:15:56.277Z,10.20
2023-04-18T07:18:34.278Z,10.13
2023-04-18T07:21:06.538Z,10.17
2023-04-18T07:23:32.908Z,10.60
2023-04-18T07:26:01.952Z,9.67
2023-04-18T07:28:28.576Z,9.33
2023-04-18T07:30:56.158Z,10.53
2023-04-18T07:33:22.770Z,9.57
2023-04-18T07:35:50.674Z,10.60
2023-04-18T07:38:16.906Z,10.37
2023-04-18T07:40:46.186Z,10.17
2023-04-18T07:43:12.270Z,10.13
2023-04-18T07:45:38.785Z,10.80
2023-04-18T07:48:05.262Z,9.80
2023-04-18T07:50:31.629Z,10.37
2023-04-18T07:52:57.761Z,10.57
2023-04-18T07:55:24.184Z,9.30
2023-04-18T07:57:50.294Z,10.33
2023-04-18T08:00:17.637Z,10.13
2023-04-18T08:02:43.991Z,10.33
2023-04-18T08:05:11.271Z,10.33
2023-04-18T08:07:37.384Z,9.43
2023-04-18T08:10:04.250Z,9.53
2023-04-18T08:12:30.596Z,9.00
2023-04-18T08:14:56.966Z,9.97
2023-04-18T08:17:23.082Z,9.80
2023-04-18T08:19:49.944Z,9.93
2023-04-18T08:22:16.041Z,9.57
2023-04-18T08:25:01.011Z,9.40
2023-04-18T08:27:30.666Z,9.23
2023-04-18T08:29:57.406Z,9.30
2023-04-18T08:32:23.483Z,9.00
2023-04-18T08:34:49.945Z,9.77
2023-04-18T08:37:16.002Z,9.93
2023-04-18T08:39:42.552Z,9.57
2023-04-18T08:42:10.134Z,10.07
2023-04-18T08:44:36.748Z,9.63
2023-04-18T08:47:02.896Z,9.23
2023-04-18T08:49:30.780Z,9.87
2023-04-18T08:52:00.334Z,8.77
2023-04-18T08:54:29.688Z,9.97
2023-04-18T08:57:17.594Z,9.47
2023-04-18T08:59:49.018Z,9.57
2023-04-18T09:02:17.117Z,9.27
2023-04-18T09:04:45.454Z,9.13
2023-04-18T09:07:15.689Z,9.17
2023-04-18T09:09:46.801Z,9.20
2023-04-18T09:12:18.834Z,10.60
2023-04-18T09:14:46.412Z,9.83
2023-04-18T09:17:17.451Z,9.87
2023-04-18T09:19:49.531Z,8.70
2023-04-18T09:22:17.179Z,9.33
2023-04-18T09:24:52.941Z,9.60
2023-04-18T09:27:21.941Z,8.80
2023-04-18T09:29:51.318Z,10.23
2023-04-18T09:32:28.710Z,8.67
2023-04-18T09:35:04.381Z,9.20
2023-04-18T09:37:30.977Z,9.30
2023-04-18T09:39:57.446Z,9.03
2023-04-18T09:42:23.507Z,8.43
2023-04-18T09:45:08.034Z,8.10
2023-04-18T09:47:35.613Z,7.67
2023-04-18T09:50:06.680Z,8.20
2023-04-18T09:52:41.132Z,8.67
2023-04-18T09:55:09.533Z,8.60
2023-04-18T09:57:39.853Z,7.90
2023-04-18T10:00:23.090Z,8.20
2023-04-18T10:03:09.014Z,7.40
2023-04-18T10:05:40.385Z,8.60
2023-04-18T10:08:07.294Z,7.60
2023-04-18T10:10:33.753Z,7.77
2023-04-18T10:13:02.129Z,7.60
2023-04-18T10:15:30.123Z,6.87
2023-04-18T10:18:04.200Z,7.30
2023-04-18T10:20:33.930Z,7.80
2023-04-18T10:23:33.926Z,7.97
2023-04-18T10:26:11.230Z,8.13
2023-04-18T10:28:57.524Z,7.67
2023-04-18T10:31:26.205Z,7.97
2023-04-18T10:34:04.115Z,7.43
2023-04-18T10:36:31.766Z,7.47
2023-04-18T10:39:05.042Z,8.73
2023-04-18T10:41:33.005Z,7.73
2023-04-18T10:44:08.850Z,8.50
2023-04-18T10:46:37.802Z,8.70
2023-04-18T10:49:26.364Z,8.97
2023-04-18T10:51:58.192Z,8.73
2023-04-18T10:54:46.422Z,8.50
2023-04-18T10:57:14.382Z,8.13
2023-04-18T10:59:43.453Z,8.27
2023-04-18T11:02:22.175Z,8.07
2023-04-18T11:04:53.548Z,8.20
2023-04-18T11:07:32.595Z,8.97
2023-04-18T11:09:59.489Z,8.87
2023-04-18T11:12:33.150Z,9.43
2023-04-18T11:15:02.448Z,8.47
2023-04-18T11:17:34.967Z,8.60
2023-04-18T11:20:12.005Z,8.17
2023-04-18T11:22:53.325Z,9.20
2023-04-18T11:25:27.535Z,8.17
2023-04-18T11:27:55.171Z,8.50
2023-04-18T11:30:21.613Z,8.10
2023-04-18T11:32:48.621Z,8.57
2023-04-18T11:35:15.714Z,8.73
2023-04-18T11:37:45.174Z,8.77
2023-04-18T11:40:13.105Z,9.40
2023-04-18T11:42:41.175Z,9.60
2023-04-18T11:45:11.109Z,9.97
2023-04-18T11:47:38.219Z,9.67
2023-04-18T11:50:06.626Z,8.40
2023-04-18T11:52:34.602Z,9.77
2023-04-18T11:55:16.929Z,9.43
2023-04-18T11:57:52.753Z,9.13
2023-04-18T12:00:30.396Z,8.53
2023-04-18T12:02:58.764Z,8.67
2023-04-18T12:05:25.152Z,8.90
2023-04-18T12:07:52.003Z,8.67
2023-04-18T12:10:21.475Z,8.67
2023-04-18T12:12:49.854Z,8.27
2023-04-18T12:15:17.093Z,8.77
2023-04-18T12:17:45.324Z,8.90
2023-04-18T12:20:12.831Z,11.00
2023-04-18T12:22:41.710Z,12.83
2023-04-18T12:25:21.902Z,11.67
2023-04-18T12:28:00.264Z,8.40
2023-04-18T12:30:31.696Z,8.93
2023-04-18T12:33:01.828Z,7.90
2023-04-18T12:35:29.815Z,9.33
2023-04-18T12:37:59.289Z,8.23
2023-04-18T12:40:26.532Z,8.93
2023-04-18T12:42:54.705Z,8.47
2023-04-18T12:45:22.536Z,7.30
2023-04-18T12:47:51.690Z,8.37
2023-04-18T12:50:23.845Z,8.23
2023-04-18T12:52:56.582Z,8.43
2023-04-18T12:55:23.444Z,8.47
2023-04-18T12:57:53.539Z,8.40
2023-04-18T13:00:22.694Z,8.30
2023-04-18T13:02:51.537Z,10.23
2023-04-18T13:05:19.705Z,10.03
2023-04-18T13:07:48.430Z,7.97
2023-04-18T13:10:19.745Z,9.17
2023-04-18T13:12:47.970Z,8.63
2023-04-18T13:15:15.474Z,8.73
2023-04-18T13:17:43.002Z,8.40
2023-04-18T13:20:11.739Z,8.73
2023-04-18T13:22:40.376Z,7.13
2023-04-18T13:25:09.735Z,8.53
2023-04-18T13:27:39.561Z,8.63
2023-04-18T13:30:10.107Z,8.97
2023-04-18T13:32:38.403Z,8.47
2023-04-18T13:35:07.566Z,9.87
2023-04-18T13:37:34.420Z,8.87
2023-04-18T13:40:00.597Z,10.30
2023-04-18T13:42:27.358Z,8.40
2023-04-18T13:44:53.922Z,8.63
2023-04-18T13:47:20.435Z,8.23
2023-04-18T13:49:46.892Z,7.70
2023-04-18T13:52:13.673Z,7.73
2023-04-18T13:54:41.607Z,8.63
2023-04-18T13:57:10.958Z,8.23
2023-04-18T13:59:40.252Z,7.83
2023-04-18T14:02:10.183Z,8.67
2023-04-18T14:04:36.983Z,12.13
2023-04-18T14:07:05.579Z,8.57
2023-04-18T14:09:32.294Z,8.83
2023-04-18T14:11:59.000Z,8.63
2023-04-18T14:14:25.495Z,9.73
2023-04-18T14:16:53.011Z,8.37
2023-04-18T14:19:19.629Z,13.73
2023-04-18T14:21:47.495Z,8.30
2023-04-18T14:24:13.678Z,8.23
2023-04-18T14:26:40.550Z,7.30
2023-04-18T14:29:07.355Z,6.27
2023-04-18T14:31:34.231Z,7.20
2023-04-18T14:34:00.379Z,7.13
2023-04-18T14:36:26.952Z,7.90
2023-04-18T14:38:53.967Z,7.90
2023-04-18T14:41:20.602Z,7.27
2023-04-18T14:43:46.884Z,7.17
2023-04-18T14:46:17.667Z,7.67
2023-04-18T14:48:45.956Z,6.93
2023-04-18T14:51:14.280Z,9.73
2023-04-18T14:53:40.469Z,9.30
2023-04-18T14:56:07.106Z,8.17
2023-04-18T14:58:33.499Z,6.33
2023-04-18T15:00:59.941Z,6.30
2023-04-18T15:03:26.684Z,7.23
2023-04-18T15:05:54.358Z,7.20
2023-04-18T15:08:20.757Z,7.20
2023-04-18T15:10:47.195Z,8.57
2023-04-18T15:13:13.492Z,7.07
2023-04-18T15:15:40.550Z,7.10
2023-04-18T15:18:07.928Z,6.97
2023-04-18T15:20:36.237Z,7.07
2023-04-18T15:23:02.601Z,6.83
2023-04-18T15:25:29.870Z,7.80
2023-04-18T15:27:57.493Z,6.40
2023-04-18T15:30:24.408Z,7.33
2023-04-18T15:32:51.409Z,6.97
2023-04-18T15:35:18.308Z,7.57
2023-04-18T15:37:44.549Z,7.97
2023-04-18T15:40:15.464Z,23.03
2023-04-18T15:42:42.939Z,12.57
2023-04-18T15:45:10.962Z,10.33
2023-04-18T15:47:37.930Z,15.93
2023-04-18T15:50:05.654Z,17.13
2023-04-18T15:52:32.306Z,9.23
2023-04-18T15:54:59.732Z,7.17
2023-04-18T15:57:26.224Z,6.93
2023-04-18T15:59:53.337Z,10.27
2023-04-18T16:02:20.058Z,51.87
2023-04-18T16:04:47.101Z,16.53
2023-04-18T16:07:13.724Z,14.30
2023-04-18T16:09:40.413Z,16.40
2023-04-18T16:12:07.543Z,28.57
2023-04-18T16:14:34.338Z,11.90
2023-04-18T16:17:00.599Z,13.03
2023-04-18T16:19:27.675Z,11.43
2023-04-18T16:21:54.040Z,10.73
2023-04-18T16:24:20.698Z,10.03
2023-04-18T16:26:47.222Z,10.27
2023-04-18T16:29:13.783Z,10.43
2023-04-18T16:31:40.719Z,10.83
2023-04-18T16:34:07.149Z,8.10
2023-04-18T16:36:36.117Z,8.13
2023-04-18T16:39:03.989Z,7.33
2023-04-18T16:41:30.629Z,9.43
2023-04-18T16:43:57.542Z,18.83
2023-04-18T16:46:23.858Z,12.13
2023-04-18T16:48:52.329Z,15.07
2023-04-18T16:51:19.034Z,17.57
2023-04-18T16:53:46.017Z,23.80
2023-04-18T16:56:12.246Z,15.93
2023-04-18T16:58:38.651Z,16.80
2023-04-18T17:01:07.226Z,12.70
2023-04-18T17:03:34.100Z,11.00
2023-04-18T17:06:01.007Z,14.33
2023-04-18T17:08:28.243Z,11.23
2023-04-18T17:10:54.850Z,8.73
2023-04-18T17:13:25.973Z,10.97
2023-04-18T17:15:52.917Z,9.63
2023-04-18T17:18:19.740Z,11.90
2023-04-18T17:20:45.948Z,15.00
2023-04-18T17:23:12.760Z,12.43
2023-04-18T17:25:39.191Z,17.87
2023-04-18T17:28:05.886Z,12.97
2023-04-18T17:30:32.562Z,13.33
2023-04-18T17:32:59.107Z,16.13
2023-04-18T17:35:25.354Z,16.07
2023-04-18T17:37:52.145Z,13.00
2023-04-18T17:40:18.326Z,18.50
2023-04-18T17:42:44.848Z,17.80
2023-04-18T17:45:11.070Z,19.80
2023-04-18T17:47:38.154Z,18.03
2023-04-18T17:50:05.100Z,16.70
2023-04-18T17:52:31.754Z,20.60
2023-04-18T17:54:59.007Z,23.40
2023-04-18T17:57:26.116Z,24.90
2023-04-18T17:59:52.542Z,26.40
2023-04-18T18:02:19.502Z,25.00
2023-04-18T18:04:46.362Z,33.57
2023-04-18T18:07:13.620Z,34.13
2023-04-18T18:09:41.570Z,28.27
2023-04-18T18:12:09.251Z,25.20
2023-04-18T18:14:35.830Z,25.47
2023-04-18T18:17:02.829Z,29.13
2023-04-18T18:19:29.360Z,32.77
2023-04-18T18:21:56.076Z,31.93
2023-04-18T18:24:24.712Z,33.00
2023-04-18T18:26:51.958Z,26.97
2023-04-18T18:29:19.144Z,18.03
2023-04-18T18:31:45.732Z,13.97
2023-04-18T18:34:12.463Z,18.60
2023-04-18T18:36:39.615Z,14.77
2023-04-18T18:39:06.232Z,17.13
2023-04-18T18:41:33.301Z,14.77
2023-04-18T18:43:59.912Z,15.27
2023-04-18T18:46:27.038Z,10.70
2023-04-18T18:48:53.805Z,11.37
2023-04-18T18:51:20.394Z,11.40
2023-04-18T18:53:46.703Z,9.13
2023-04-18T18:56:13.895Z,8.83
2023-04-18T18:58:40.494Z,9.13
2023-04-18T19:01:07.128Z,10.10
2023-04-18T19:03:34.139Z,10.67
2023-04-18T19:06:03.299Z,9.33
2023-04-18T19:08:30.230Z,13.90
2023-04-18T19:10:56.755Z,10.90
2023-04-18T19:13:23.440Z,9.63
2023-04-18T19:15:50.727Z,9.00
2023-04-18T19:18:19.274Z,9.50
2023-04-18T19:20:46.493Z,8.90
2023-04-18T19:23:13.041Z,9.17
2023-04-18T19:25:39.765Z,9.60
2023-04-18T19:28:06.387Z,10.03
2023-04-18T19:30:33.108Z,9.67
2023-04-18T19:32:59.790Z,9.87
2023-04-18T19:35:26.863Z,8.43
2023-04-18T19:38:00.642Z,9.17
2023-04-18T19:40:29.260Z,8.60
2023-04-18T19:42:55.899Z,9.47
2023-04-18T19:45:23.503Z,9.43
2023-04-18T19:47:49.942Z,9.47
2023-04-18T19:50:16.874Z,8.70
2023-04-18T19:52:43.257Z,8.07
2023-04-18T19:55:10.487Z,9.57
2023-04-18T19:57:40.816Z,9.03
2023-04-18T20:00:12.488Z,8.60
2023-04-18T20:02:40.409Z,8.03
2023-04-18T20:05:08.312Z,8.40
2023-04-18T20:07:35.330Z,8.47
2023-04-18T20:10:03.705Z,9.30
2023-04-18T20:12:30.116Z,8.57
2023-04-18T20:14:58.231Z,9.57
2023-04-18T20:17:29.528Z,10.50
2023-04-18T20:19:56.447Z,9.57
2023-04-18T20:22:26.164Z,12.47
2023-04-18T20:24:56.540Z,8.53
2023-04-18T20:27:23.449Z,13.73
2023-04-18T20:29:50.181Z,7.83
2023-04-18T20:32:16.566Z,8.50
2023-04-18T20:34:45.005Z,10.07
2023-04-18T20:37:14.836Z,9.87
2023-04-18T20:39:41.602Z,8.63
2023-04-18T20:42:13.405Z,10.37
2023-04-18T20:44:45.970Z,9.03
2023-04-18T20:47:14.746Z,8.43
2023-04-18T20:49:42.268Z,9.47
2023-04-18T20:52:13.607Z,10.63
2023-04-18T20:54:41.036Z,11.33
2023-04-18T20:57:07.510Z,8.60
2023-04-18T20:59:34.318Z,8.83
2023-04-18T21:02:00.813Z,7.70
2023-04-18T21:04:28.342Z,7.97
2023-04-18T21:06:55.857Z,8.93
2023-04-18T21:09:22.374Z,10.77
2023-04-18T21:11:48.470Z,8.53
2023-04-18T21:14:16.298Z,8.40
2023-04-18T21:16:42.820Z,7.70
2023-04-18T21:19:09.875Z,8.07
2023-04-18T21:21:35.931Z,7.17
2023-04-18T21:24:02.391Z,7.70
2023-04-18T21:26:28.648Z,6.67
2023-04-18T21:29:06.545Z,6.57
2023-04-18T21:31:34.742Z,6.93
2023-04-18T21:34:03.759Z,7.53
2023-04-18T21:36:30.862Z,7.00
2023-04-18T21:38:58.968Z,6.70
2023-04-18T21:41:25.184Z,6.50
2023-04-18T21:43:52.545Z,6.27
2023-04-18T21:46:19.064Z,8.07
2023-04-18T21:48:46.636Z,7.00
2023-04-18T21:51:15.021Z,7.70
2023-04-18T21:53:41.729Z,8.47
2023-04-18T21:56:08.417Z,7.53
2023-04-18T21:58:35.132Z,7.10
2023-04-18T22:01:02.084Z,6.37
2023-04-18T22:03:29.220Z,6.47
2023-04-18T22:05:55.870Z,6.47
2023-04-18T22:08:24.896Z,10.97
2023-04-18T22:10:56.909Z,9.10
2023-04-18T22:13:24.870Z,8.17
2023-04-18T22:15:51.097Z,8.53
2023-04-18T22:18:18.147Z,8.23
2023-04-18T22:20:46.049Z,10.00
2023-04-18T22:23:12.410Z,9.17
2023-04-18T22:25:38.579Z,8.50
2023-04-18T22:28:04.995Z,6.33
2023-04-18T22:30:31.350Z,5.63
2023-04-18T22:32:58.236Z,7.57
2023-04-18T22:35:25.731Z,6.97
2023-04-18T22:37:52.117Z,8.43
2023-04-18T22:40:18.342Z,7.83
2023-04-18T22:42:44.998Z,28.53
2023-04-18T22:45:11.192Z,8.67
2023-04-18T22:47:37.836Z,9.30
2023-04-18T22:50:04.640Z,7.40
2023-04-18T22:52:31.330Z,8.57
2023-04-18T22:54:57.447Z,9.40
2023-04-18T22:57:23.901Z,9.47
2023-04-18T22:59:49.983Z,8.40
2023-04-18T23:02:16.435Z,8.77
2023-04-18T23:04:44.532Z,6.87
2023-04-18T23:07:11.090Z,6.67
2023-04-18T23:09:37.154Z,6.57
2023-04-18T23:12:03.960Z,6.10
2023-04-18T23:14:31.149Z,5.70
2023-04-18T23:16:57.576Z,6.50
2023-04-18T23:19:25.052Z,5.50
2023-04-18T23:21:51.412Z,5.37
2023-04-18T23:24:17.509Z,5.60
2023-04-18T23:26:44.167Z,4.70
2023-04-18T23:29:10.171Z,5.93
2023-04-18T23:31:36.607Z,5.73
2023-04-18T23:34:02.647Z,5.07
2023-04-18T23:36:28.971Z,5.60
2023-04-18T23:38:55.133Z,4.97
2023-04-18T23:41:21.519Z,5.30
2023-04-18T23:43:47.611Z,5.07
2023-04-18T23:46:14.835Z,4.80
2023-04-18T23:48:41.040Z,5.53
2023-04-18T23:51:07.398Z,4.10
2023-04-18T23:53:33.472Z,6.30
2023-04-18T23:55:59.844Z,5.20
2023-04-18T23:58:25.889Z,6.17
